Time;durP1;ratioP1;P1;durP2;ratioP2;P2;SDS_P1;SDS_P2;PMS_P1;PMS_P2;Temp;Humidity;BMP_temperature;BMP_pressure;BME280_temperature;BME280_humidity;BME280_pressure;Samples;Min_cycle;Max_cycle;Signal;HPM_P1;HPM_P2
2023/04/21 00:00:07;;;;;;;83.72;29.27;;;9.30;99.90;;;;;;5055421;28;20068;-81
2023/04/21 00:02:38;;;;;;;83.55;28.98;;;9.30;99.90;;;;;;5056584;28;20136;-81
2023/04/21 00:05:06;;;;;;;94.05;34.80;;;9.30;99.90;;;;;;5055699;28;20053;-82
2023/04/21 00:07:32;;;;;;;88.82;28.98;;;9.30;99.90;;;;;;5056676;28;20053;-83
2023/04/21 00:09:58;;;;;;;87.78;28.85;;;9.30;99.90;;;;;;5055700;28;20055;-83
2023/04/21 00:12:24;;;;;;;87.32;29.02;;;9.30;99.90;;;;;;5055309;28;20120;-83
2023/04/21 00:14:50;;;;;;;78.18;27.50;;;9.20;99.90;;;;;;5057000;28;20128;-81
2023/04/21 00:17:15;;;;;;;87.90;29.67;;;9.30;99.90;;;;;;5055133;28;20510;-86
2023/04/21 00:19:41;;;;;;;85.47;28.55;;;9.20;99.90;;;;;;5055494;28;20547;-81
2023/04/21 00:22:10;;;;;;;84.32;27.25;;;9.20;99.90;;;;;;5056507;28;20041;-82
2023/04/21 00:24:36;;;;;;;85.40;29.55;;;9.10;99.90;;;;;;5056029;28;20183;-81
2023/04/21 00:27:02;;;;;;;84.90;28.42;;;9.10;99.90;;;;;;5038479;28;20124;-82
2023/04/21 00:29:28;;;;;;;81.03;27.73;;;9.00;99.90;;;;;;5055918;28;20051;-83
2023/04/21 00:31:54;;;;;;;90.82;31.85;;;8.90;99.90;;;;;;5039506;28;20103;-80
2023/04/21 00:34:20;;;;;;;95.47;30.15;;;8.80;99.90;;;;;;5058673;28;20049;-82
2023/04/21 00:36:45;;;;;;;80.95;29.98;;;8.80;99.90;;;;;;5058049;28;20049;-84
2023/04/21 00:39:11;;;;;;;85.40;29.05;;;8.80;99.90;;;;;;5057882;28;20127;-81
2023/04/21 00:41:38;;;;;;;74.55;26.85;;;8.80;99.90;;;;;;5058493;28;20052;-84
2023/04/21 00:44:05;;;;;;;;;;;8.80;99.90;;;;;;5058314;28;20073;-84
2023/04/21 00:46:31;;;;;;;77.70;28.17;;;8.70;99.90;;;;;;5058857;28;19932;-89
2023/04/21 00:48:58;;;;;;;78.10;26.67;;;8.80;99.90;;;;;;5058560;28;20045;-77
2023/04/21 00:51:25;;;;;;;73.90;26.63;;;8.70;99.90;;;;;;5061228;28;20037;-80
2023/04/21 00:53:51;;;;;;;66.07;24.20;;;8.80;99.90;;;;;;5060441;28;20063;-77
2023/04/21 00:56:17;;;;;;;77.63;27.77;;;8.80;99.90;;;;;;5060841;28;20049;-79
2023/04/21 00:58:44;;;;;;;82.78;28.45;;;8.80;99.90;;;;;;5058976;28;20048;-83
2023/04/21 01:01:12;;;;;;;91.68;28.95;;;8.80;99.90;;;;;;5059666;28;20056;-83
2023/04/21 01:03:37;;;;;;;74.43;24.70;;;8.80;99.90;;;;;;5059321;28;20127;-80
2023/04/21 01:06:03;;;;;;;77.07;27.55;;;8.80;99.90;;;;;;5057563;28;20160;-79
2023/04/21 01:08:30;;;;;;;70.93;26.92;;;8.80;99.90;;;;;;5058469;28;20056;-83
2023/04/21 01:10:55;;;;;;;78.50;25.67;;;8.80;99.90;;;;;;5042337;28;20064;-81
2023/04/21 01:13:21;;;;;;;71.43;26.02;;;8.80;99.90;;;;;;5059314;28;20041;-82
2023/04/21 01:15:47;;;;;;;80.90;28.00;;;8.70;99.90;;;;;;5058373;28;20482;-83
2023/04/21 01:18:13;;;;;;;73.50;27.33;;;8.70;99.90;;;;;;5059311;28;20202;-80
2023/04/21 01:20:40;;;;;;;69.95;24.98;;;8.70;99.90;;;;;;5060180;28;20481;-86
2023/04/21 01:23:08;;;;;;;62.27;24.23;;;8.70;99.90;;;;;;5058716;28;20049;-82
2023/04/21 01:25:34;;;;;;;79.90;25.17;;;8.80;99.90;;;;;;5058425;28;20813;-82
2023/04/21 01:28:00;;;;;;;73.00;24.15;;;8.80;99.90;;;;;;5060627;28;20053;-81
2023/04/21 01:30:26;;;;;;;74.15;24.85;;;8.80;99.90;;;;;;5060073;28;20072;-79
2023/04/21 01:32:52;;;;;;;68.93;25.33;;;8.80;99.90;;;;;;5060426;28;20041;-81
2023/04/21 01:35:18;;;;;;;72.75;24.48;;;8.80;99.90;;;;;;5061080;28;20045;-81
2023/04/21 01:37:44;;;;;;;69.30;25.08;;;8.80;99.90;;;;;;5060494;28;20486;-78
2023/04/21 01:40:10;;;;;;;68.13;23.48;;;8.80;99.90;;;;;;5061509;28;20389;-82
2023/04/21 01:42:42;;;;;;;62.63;24.35;;;8.80;99.90;;;;;;5060087;28;20436;-81
2023/04/21 01:45:08;;;;;;;67.80;23.73;;;8.80;99.90;;;;;;5059708;28;20037;-79
2023/04/21 01:47:34;;;;;;;63.07;25.03;;;8.80;99.90;;;;;;5058914;28;20037;-81
2023/04/21 01:50:00;;;;;;;66.00;23.60;;;8.90;99.90;;;;;;5061128;28;20124;-79
2023/04/21 01:52:25;;;;;;;61.90;23.60;;;8.90;99.90;;;;;;5058553;28;20155;-81
2023/04/21 01:54:51;;;;;;;62.60;23.27;;;8.90;99.90;;;;;;5057904;28;20052;-87
2023/04/21 01:57:17;;;;;;;64.28;23.27;;;8.90;99.90;;;;;;5057651;28;20139;-84
2023/04/21 01:59:43;;;;;;;62.40;24.05;;;9.00;99.90;;;;;;5059956;28;20045;-85
2023/04/21 02:02:09;;;;;;;63.22;23.58;;;8.90;99.90;;;;;;5059146;28;20076;-81
2023/04/21 02:04:35;;;;;;;67.05;23.73;;;9.00;99.90;;;;;;5059418;28;20106;-86
2023/04/21 02:07:01;;;;;;;53.67;21.52;;;8.90;99.90;;;;;;5058353;28;20055;-81
2023/04/21 02:09:26;;;;;;;56.88;21.95;;;9.00;99.90;;;;;;5058035;28;20425;-81
2023/04/21 02:11:55;;;;;;;64.97;25.17;;;8.90;99.90;;;;;;5057577;28;20041;-82
2023/04/21 02:14:21;;;;;;;62.40;22.38;;;8.90;99.90;;;;;;5056835;28;20048;-82
2023/04/21 02:16:47;;;;;;;53.72;21.65;;;8.90;99.90;;;;;;5056797;28;20190;-80
2023/04/21 02:19:13;;;;;;;53.25;21.02;;;9.00;99.90;;;;;;5056788;28;20060;-82
2023/04/21 02:21:39;;;;;;;58.13;20.77;;;9.00;99.90;;;;;;5057300;28;20363;-81
2023/04/21 02:24:04;;;;;;;55.17;22.52;;;9.00;99.90;;;;;;5038591;28;20056;-81
2023/04/21 02:26:30;;;;;;;59.15;22.23;;;9.10;99.90;;;;;;5056296;28;20056;-82
2023/04/21 02:28:56;;;;;;;59.72;22.38;;;9.00;99.90;;;;;;5038792;28;20063;-85
2023/04/21 02:31:22;;;;;;;52.38;22.55;;;9.00;99.90;;;;;;5054843;28;20041;-80
2023/04/21 02:33:47;;;;;;;62.78;22.02;;;9.00;99.90;;;;;;5039188;28;20037;-80
2023/04/21 02:36:13;;;;;;;67.55;23.77;;;8.90;99.90;;;;;;5057317;28;20072;-83
2023/04/21 02:38:39;;;;;;;53.38;20.88;;;9.00;99.90;;;;;;5057677;28;20098;-80
2023/04/21 02:41:05;;;;;;;52.60;21.30;;;8.90;99.90;;;;;;5039997;28;20060;-82
2023/04/21 02:43:30;;;;;;;55.10;21.25;;;9.00;99.90;;;;;;5057082;28;20049;-85
2023/04/21 02:45:56;;;;;;;51.60;19.70;;;9.00;99.90;;;;;;5056288;28;20048;-81
2023/04/21 02:48:22;;;;;;;55.55;19.63;;;9.00;99.90;;;;;;5038552;28;20060;-79
2023/04/21 02:50:52;;;;;;;55.45;20.33;;;9.20;99.90;;;;;;5058299;28;20045;-82
2023/04/21 02:53:20;;;;;;;51.40;20.52;;;9.10;99.90;;;;;;5056492;28;20053;-82
2023/04/21 02:55:46;;;;;;;50.33;19.25;;;9.10;99.90;;;;;;5041435;28;20106;-85
2023/04/21 02:58:12;;;;;;;54.78;18.98;;;9.10;99.90;;;;;;5073365;28;20038;-85
2023/04/21 03:00:38;;;;;;;48.80;20.55;;;9.10;99.90;;;;;;5056922;28;20045;-84
2023/04/21 03:03:03;;;;;;;48.00;18.23;;;9.10;99.90;;;;;;5057220;28;20049;-79
2023/04/21 03:05:29;;;;;;;50.55;19.10;;;9.10;99.90;;;;;;5055378;28;20077;-77
2023/04/21 03:07:55;;;;;;;45.00;17.73;;;9.10;99.90;;;;;;5057900;28;20419;-80
2023/04/21 03:10:21;;;;;;;51.95;19.98;;;9.20;99.90;;;;;;5055581;28;20083;-79
2023/04/21 03:12:46;;;;;;;49.20;18.67;;;9.20;99.90;;;;;;5056187;28;20126;-83
2023/04/21 03:15:13;;;;;;;52.22;19.33;;;9.20;99.90;;;;;;5058335;28;20060;-88
2023/04/21 03:17:42;;;;;;;50.37;18.90;;;9.30;99.90;;;;;;5057543;28;20048;-82
2023/04/21 03:20:10;;;;;;;44.70;17.30;;;9.30;99.90;;;;;;5059129;28;20128;-82
2023/04/21 03:22:39;;;;;;;46.00;17.17;;;9.40;99.90;;;;;;5063604;28;20122;-85
2023/04/21 03:25:06;;;;;;;42.63;17.77;;;9.40;99.90;;;;;;5070011;28;20041;-81
2023/04/21 03:27:32;;;;;;;43.10;18.02;;;9.40;99.90;;;;;;5068722;28;20033;-86
2023/04/21 03:29:58;;;;;;;42.95;17.83;;;9.50;99.90;;;;;;5049653;28;20060;-84
2023/04/21 03:32:24;;;;;;;42.92;17.98;;;9.50;99.90;;;;;;5059009;28;20048;-81
2023/04/21 03:34:50;;;;;;;43.28;17.92;;;9.50;99.90;;;;;;5062442;28;20457;-83
2023/04/21 03:37:15;;;;;;;41.15;17.75;;;9.50;99.90;;;;;;5059178;28;20052;-82
2023/04/21 03:39:41;;;;;;;45.85;18.48;;;9.50;99.90;;;;;;5057371;28;20127;-84
2023/04/21 03:42:07;;;;;;;48.90;17.38;;;9.50;99.90;;;;;;5066706;28;20068;-86
2023/04/21 03:44:32;;;;;;;50.63;17.48;;;9.60;99.90;;;;;;5064194;28;20045;-82
2023/04/21 03:46:58;;;;;;;53.83;19.35;;;9.60;99.90;;;;;;5061705;28;20049;-82
2023/04/21 03:49:24;;;;;;;45.15;17.40;;;9.60;99.90;;;;;;5061564;28;20354;-81
2023/04/21 03:51:50;;;;;;;46.00;18.02;;;9.60;99.90;;;;;;5057738;28;20060;-87
2023/04/21 03:54:15;;;;;;;37.55;17.25;;;9.50;99.90;;;;;;5056808;28;20385;-87
2023/04/21 03:56:41;;;;;;;41.22;16.67;;;9.50;99.90;;;;;;5041417;28;20091;-81
2023/04/21 03:59:07;;;;;;;38.90;16.58;;;9.50;99.90;;;;;;5055421;28;20052;-85
2023/04/21 04:01:34;;;;;;;41.28;16.98;;;9.60;99.90;;;;;;5057151;28;20060;-81
2023/04/21 04:03:59;;;;;;;42.67;18.08;;;9.60;99.90;;;;;;5057232;28;20041;-88
2023/04/21 04:06:25;;;;;;;43.20;16.75;;;9.60;99.90;;;;;;5060060;28;20041;-81
2023/04/21 04:08:51;;;;;;;41.03;17.60;;;9.60;99.90;;;;;;5063511;28;20056;-86
2023/04/21 04:11:16;;;;;;;38.58;16.75;;;9.60;99.90;;;;;;5065108;28;20041;-82
2023/04/21 04:13:42;;;;;;;49.08;18.23;;;9.60;99.90;;;;;;5063277;28;20063;-84
2023/04/21 04:16:08;;;;;;;47.55;17.17;;;9.60;99.90;;;;;;5063117;28;20053;-83
2023/04/21 04:18:33;;;;;;;48.17;16.88;;;9.50;99.90;;;;;;5062005;28;20053;-80
2023/04/21 04:21:07;;;;;;;35.63;14.88;;;9.60;99.90;;;;;;5058941;28;20052;-88
2023/04/21 04:23:34;;;;;;;39.05;16.80;;;9.50;99.90;;;;;;5044295;28;20071;-79
2023/04/21 04:26:04;;;;;;;46.55;17.55;;;9.50;99.90;;;;;;5062688;28;20350;-82
2023/04/21 04:28:30;;;;;;;40.88;18.40;;;9.50;99.90;;;;;;5062972;28;20049;-85
2023/04/21 04:30:56;;;;;;;35.10;15.68;;;9.40;99.90;;;;;;5061332;28;20044;-81
2023/04/21 04:33:21;;;;;;;44.50;17.73;;;9.40;99.90;;;;;;5060275;28;20456;-84
2023/04/21 04:35:47;;;;;;;38.60;16.70;;;9.40;99.90;;;;;;5064640;28;20037;-87
2023/04/21 04:38:16;;;;;;;36.05;16.60;;;9.30;99.90;;;;;;5063493;28;20037;-81
2023/04/21 04:40:42;;;;;;;42.10;17.65;;;9.30;99.90;;;;;;5059903;28;20040;-84
2023/04/21 04:43:09;;;;;;;40.20;16.20;;;9.20;99.90;;;;;;5077824;28;20044;-83
2023/04/21 04:45:36;;;;;;;43.38;17.25;;;9.20;99.90;;;;;;5061865;28;20126;-78
2023/04/21 04:48:02;;;;;;;43.72;17.08;;;9.20;99.90;;;;;;5065820;28;20047;-81
2023/04/21 04:50:29;;;;;;;39.88;16.33;;;9.30;99.90;;;;;;5062231;28;20033;-81
2023/04/21 04:52:55;;;;;;;40.30;16.03;;;9.30;99.90;;;;;;5061816;28;20084;-80
2023/04/21 04:55:21;;;;;;;48.43;17.40;;;9.30;99.90;;;;;;5063518;28;20041;-83
2023/04/21 04:57:47;;;;;;;38.67;16.92;;;9.40;99.90;;;;;;5057978;28;20291;-83
2023/04/21 05:00:13;;;;;;;42.58;16.30;;;9.40;99.90;;;;;;5058575;28;20049;-82
2023/04/21 05:02:39;;;;;;;42.67;16.95;;;9.40;99.90;;;;;;5060081;28;20053;-86
2023/04/21 05:05:06;;;;;;;46.37;17.30;;;9.40;99.90;;;;;;5060847;28;20047;-82
2023/04/21 05:07:35;;;;;;;40.65;16.27;;;9.40;99.90;;;;;;5059651;28;20051;-86
2023/04/21 05:10:03;;;;;;;40.55;16.70;;;9.40;99.90;;;;;;5060148;28;20110;-79
2023/04/21 05:12:29;;;;;;;41.03;16.77;;;9.50;99.90;;;;;;5059096;28;20037;-80
2023/04/21 05:14:58;;;;;;;34.95;15.15;;;9.50;99.90;;;;;;5063423;28;20041;-84
2023/04/21 05:17:29;;;;;;;42.90;16.90;;;9.50;99.90;;;;;;5062018;28;20119;-83
2023/04/21 05:19:55;;;;;;;41.72;17.23;;;9.50;99.90;;;;;;5057606;28;20052;-83
2023/04/21 05:22:21;;;;;;;39.45;14.45;;;9.50;99.90;;;;;;5023165;28;20049;-81
2023/04/21 05:24:47;;;;;;;39.75;16.10;;;9.60;99.90;;;;;;5056703;28;20036;-86
2023/04/21 05:27:12;;;;;;;38.40;16.15;;;9.50;99.90;;;;;;5057802;28;20041;-83
2023/04/21 05:29:38;;;;;;;40.85;15.57;;;9.50;99.90;;;;;;5058735;28;20342;-88
2023/04/21 05:32:04;;;;;;;37.72;14.77;;;9.50;99.90;;;;;;5057968;28;20029;-81
2023/04/21 05:34:32;;;;;;;36.90;15.68;;;9.60;99.90;;;;;;5061077;28;20099;-85
2023/04/21 05:36:58;;;;;;;38.10;16.77;;;9.60;99.90;;;;;;5050672;28;20037;-82
2023/04/21 05:39:25;;;;;;;35.45;15.48;;;9.60;99.90;;;;;;5062573;28;20029;-82
2023/04/21 05:41:51;;;;;;;39.47;16.67;;;9.70;99.90;;;;;;5059019;28;20048;-86
2023/04/21 05:44:17;;;;;;;39.00;16.58;;;9.70;99.90;;;;;;5062252;28;20175;-79
2023/04/21 05:46:43;;;;;;;42.00;16.55;;;9.80;99.90;;;;;;5060475;28;20384;-86
2023/04/21 05:49:08;;;;;;;36.78;16.42;;;9.70;99.90;;;;;;5043050;28;20033;-87
2023/04/21 05:51:34;;;;;;;35.63;15.40;;;9.80;99.90;;;;;;5056802;28;20045;-85
2023/04/21 05:54:00;;;;;;;32.25;14.98;;;9.80;99.90;;;;;;5058724;28;20041;-87
2023/04/21 05:56:26;;;;;;;40.67;16.58;;;9.80;99.90;;;;;;5043293;28;20048;-84
2023/04/21 05:58:51;;;;;;;36.47;15.98;;;9.90;99.90;;;;;;5059189;28;20139;-83
2023/04/21 06:01:17;;;;;;;35.08;16.38;;;10.00;99.90;;;;;;5056657;28;20045;-85
2023/04/21 06:03:43;;;;;;;38.83;16.20;;;10.10;99.90;;;;;;5061184;28;20120;-85
2023/04/21 06:06:10;;;;;;;32.30;14.95;;;10.10;99.90;;;;;;5059323;28;20097;-87
2023/04/21 06:08:36;;;;;;;34.55;15.73;;;10.20;99.90;;;;;;5056019;28;20037;-82
2023/04/21 06:11:02;;;;;;;38.63;15.50;;;10.30;99.90;;;;;;5057974;28;20052;-82
2023/04/21 06:13:27;;;;;;;37.42;15.70;;;10.40;99.90;;;;;;5059625;28;20464;-89
2023/04/21 06:15:54;;;;;;;38.13;15.07;;;10.50;99.90;;;;;;5057252;28;20053;-85
2023/04/21 06:18:19;;;;;;;40.97;15.77;;;10.60;99.90;;;;;;5057675;28;20057;-84
2023/04/21 06:20:52;;;;;;;35.58;15.27;;;10.60;99.90;;;;;;5059726;28;20343;-88
2023/04/21 06:23:18;;;;;;;37.75;15.65;;;10.60;99.90;;;;;;5059428;28;20051;-84
2023/04/21 06:25:44;;;;;;;36.20;15.35;;;10.70;99.90;;;;;;5062742;28;20045;-83
2023/04/21 06:28:10;;;;;;;37.08;15.13;;;10.80;99.90;;;;;;5058893;28;20036;-78
2023/04/21 06:30:36;;;;;;;36.58;15.43;;;10.90;99.90;;;;;;5057631;28;20070;-83
2023/04/21 06:33:03;;;;;;;39.75;20.30;;;11.00;99.90;;;;;;5058761;28;20131;-81
2023/04/21 06:35:29;;;;;;;35.78;15.43;;;11.00;99.90;;;;;;5059758;28;20120;-88
2023/04/21 06:37:55;;;;;;;34.95;15.15;;;11.10;99.90;;;;;;5061555;28;20050;-87
2023/04/21 06:40:21;;;;;;;30.75;14.88;;;11.20;99.90;;;;;;5058744;28;20044;-84
2023/04/21 06:42:47;;;;;;;33.05;14.90;;;11.20;99.90;;;;;;5068588;28;20041;-84
2023/04/21 06:45:12;;;;;;;36.40;15.18;;;11.30;99.90;;;;;;5061310;28;20086;-80
2023/04/21 06:47:38;;;;;;;37.65;15.68;;;11.30;99.90;;;;;;5059330;28;20090;-82
2023/04/21 06:50:04;;;;;;;33.70;15.07;;;11.30;99.90;;;;;;5060585;28;20132;-84
2023/04/21 06:52:30;;;;;;;35.13;15.40;;;11.30;99.90;;;;;;5059212;28;20491;-88
2023/04/21 06:54:56;;;;;;;33.40;14.70;;;11.30;99.90;;;;;;5077045;28;20080;-84
2023/04/21 06:57:22;;;;;;;33.25;15.25;;;11.30;99.90;;;;;;5060805;28;20472;-84
2023/04/21 06:59:47;;;;;;;36.63;17.10;;;11.30;99.90;;;;;;5043916;28;20526;-82
2023/04/21 07:02:13;;;;;;;39.97;15.65;;;11.30;99.90;;;;;;5058343;28;20051;-90
2023/04/21 07:04:39;;;;;;;33.30;14.85;;;11.30;99.90;;;;;;5056165;28;20091;-81
2023/04/21 07:07:05;;;;;;;36.97;15.05;;;11.40;99.90;;;;;;5058680;28;20079;-83
2023/04/21 07:09:32;;;;;;;30.83;15.45;;;11.40;99.90;;;;;;5060986;28;20057;-84
2023/04/21 07:11:58;;;;;;;36.33;14.85;;;11.40;99.90;;;;;;5058372;28;20044;-86
2023/04/21 07:14:25;;;;;;;27.83;13.97;;;11.40;99.90;;;;;;5058185;28;20044;-78
2023/04/21 07:16:50;;;;;;;34.95;14.02;;;11.50;99.90;;;;;;5062112;28;20481;-85
2023/04/21 07:19:16;;;;;;;35.40;15.60;;;11.60;99.90;;;;;;5057483;28;20037;-84
2023/04/21 07:21:42;;;;;;;32.90;14.77;;;11.60;99.90;;;;;;5061973;28;20055;-87
2023/04/21 07:24:08;;;;;;;33.47;15.23;;;11.70;99.90;;;;;;5057896;28;20045;-90
2023/04/21 07:26:34;;;;;;;31.50;13.95;;;11.80;99.90;;;;;;5058489;28;20100;-87
2023/04/21 07:28:59;;;;;;;35.83;15.30;;;11.80;99.90;;;;;;5061869;28;20080;-85
2023/04/21 07:31:25;;;;;;;35.22;14.70;;;11.90;99.90;;;;;;5063689;28;20131;-86
2023/04/21 07:33:51;;;;;;;35.50;16.13;;;12.00;99.90;;;;;;5060206;28;20044;-76
2023/04/21 07:36:17;;;;;;;34.30;15.55;;;12.20;99.90;;;;;;5061394;28;20119;-87
2023/04/21 07:38:43;;;;;;;35.17;15.07;;;12.30;99.90;;;;;;5061049;28;20045;-83
2023/04/21 07:41:10;;;;;;;30.70;15.45;;;12.40;99.90;;;;;;5067921;28;20045;-87
2023/04/21 07:43:37;;;;;;;36.17;15.07;;;12.50;99.90;;;;;;5072671;28;20143;-85
2023/04/21 07:46:06;;;;;;;34.40;15.23;;;12.60;99.90;;;;;;5067981;28;20053;-90
2023/04/21 07:48:32;;;;;;;31.70;14.43;;;12.80;99.90;;;;;;5063727;28;20044;-88
2023/04/21 07:50:59;;;;;;;32.13;14.18;;;12.80;99.90;;;;;;5062558;28;20461;-85
2023/04/21 07:53:25;;;;;;;34.08;14.48;;;12.90;99.90;;;;;;5064202;28;20450;-83
2023/04/21 07:55:51;;;;;;;38.33;15.45;;;12.90;99.90;;;;;;5066137;28;20127;-86
2023/04/21 07:58:17;;;;;;;36.00;15.30;;;12.90;99.90;;;;;;5068273;28;20361;-84
2023/04/21 08:00:42;;;;;;;35.78;14.82;;;12.90;99.90;;;;;;5067433;28;20040;-90
2023/04/21 08:03:08;;;;;;;27.40;13.75;;;13.00;99.90;;;;;;5067606;28;20060;-87
2023/04/21 08:05:34;;;;;;;30.25;14.05;;;13.20;99.90;;;;;;5065016;28;20061;-83
2023/04/21 08:08:00;;;;;;;33.40;14.35;;;13.30;99.90;;;;;;5066513;28;20052;-87
2023/04/21 08:10:25;;;;;;;32.50;15.65;;;13.50;99.90;;;;;;5062854;28;20118;-84
2023/04/21 08:12:51;;;;;;;34.22;15.18;;;13.60;99.90;;;;;;5065684;28;20076;-86
2023/04/21 08:15:17;;;;;;;30.65;13.82;;;13.70;99.90;;;;;;5064511;28;20131;-79
2023/04/21 08:17:43;;;;;;;34.97;14.68;;;13.90;99.90;;;;;;5062928;28;20052;-83
2023/04/21 08:20:09;;;;;;;35.03;14.30;;;13.90;99.90;;;;;;5063303;28;20488;-84
2023/04/21 08:22:38;;;;;;;32.73;14.13;;;14.00;99.90;;;;;;5060138;28;20120;-82
2023/04/21 08:25:04;;;;;;;34.83;15.35;;;14.10;99.90;;;;;;5066218;28;20062;-84
2023/04/21 08:27:30;;;;;;;27.52;13.63;;;14.20;99.90;;;;;;5062618;28;20040;-90
2023/04/21 08:29:56;;;;;;;34.80;14.23;;;14.40;99.90;;;;;;5043488;28;20152;-85
2023/04/21 08:32:23;;;;;;;26.73;13.25;;;14.60;99.90;;;;;;5061953;28;20037;-80
2023/04/21 08:34:53;;;;;;;30.42;14.77;;;14.80;99.90;;;;;;5064161;28;20037;-85
2023/04/21 08:37:20;;;;;;;32.10;13.90;;;14.80;99.90;;;;;;5062572;28;20048;-82
2023/04/21 08:39:53;;;;;;;28.05;14.02;;;14.90;99.90;;;;;;5058380;28;20136;-86
2023/04/21 08:42:19;;;;;;;28.58;13.95;;;14.90;99.90;;;;;;5060911;28;20073;-83
2023/04/21 08:44:48;;;;;;;30.05;13.82;;;15.00;99.90;;;;;;5063017;28;20041;-88
2023/04/21 08:47:14;;;;;;;33.03;14.10;;;15.10;99.90;;;;;;5062481;28;20065;-91
2023/04/21 08:49:43;;;;;;;31.23;12.98;;;15.10;99.90;;;;;;5062045;28;20045;-85
2023/04/21 08:52:12;;;;;;;30.65;13.85;;;15.20;99.90;;;;;;5059737;28;20378;-86
2023/04/21 08:54:39;;;;;;;37.65;13.35;;;15.30;99.90;;;;;;5058426;28;20377;-82
2023/04/21 08:57:06;;;;;;;34.20;13.57;;;15.30;99.90;;;;;;5058974;28;20081;-83
2023/04/21 08:59:32;;;;;;;25.70;12.55;;;15.10;99.90;;;;;;5058343;28;20045;-86
2023/04/21 09:02:12;;;;;;;32.50;13.00;;;15.10;99.90;;;;;;5058063;28;20107;-83
2023/04/21 09:04:42;;;;;;;28.45;13.35;;;15.20;99.90;;;;;;5058197;28;20465;-80
2023/04/21 09:07:08;;;;;;;31.70;13.18;;;15.20;99.90;;;;;;5059585;28;20057;-85
2023/04/21 09:09:54;;;;;;;28.98;12.75;;;15.40;99.90;;;;;;5057537;28;20037;-82
2023/04/21 09:12:20;;;;;;;29.52;14.35;;;15.50;99.90;;;;;;5060138;28;20044;-90
2023/04/21 09:14:46;;;;;;;34.40;14.18;;;15.60;99.90;;;;;;5058817;28;20036;-85
2023/04/21 09:17:14;;;;;;;32.92;13.35;;;15.60;99.90;;;;;;5024539;28;20048;-78
2023/04/21 09:19:39;;;;;;;31.30;15.40;;;15.50;99.90;;;;;;5057721;28;20419;-85
2023/04/21 09:22:05;;;;;;;29.85;13.88;;;15.40;99.90;;;;;;5058920;28;20175;-75
2023/04/21 09:24:31;;;;;;;32.38;17.52;;;15.30;99.90;;;;;;5043013;28;20175;-89
2023/04/21 09:26:57;;;;;;;30.63;15.65;;;15.20;99.90;;;;;;5042538;28;20167;-88
2023/04/21 09:29:24;;;;;;;27.27;13.93;;;15.20;99.90;;;;;;5060261;28;20091;-82
2023/04/21 09:31:51;;;;;;;31.98;14.38;;;15.30;99.90;;;;;;5058962;28;20033;-78
2023/04/21 09:34:25;;;;;;;34.35;14.68;;;15.30;99.90;;;;;;5044977;28;20111;-87
2023/04/21 09:37:02;;;;;;;30.02;14.38;;;15.40;99.90;;;;;;5062037;28;20045;-80
2023/04/21 09:39:32;;;;;;;32.72;15.48;;;15.50;99.90;;;;;;5061595;28;20414;-85
2023/04/21 09:41:58;;;;;;;32.72;15.02;;;15.50;99.90;;;;;;5065069;28;20061;-85
2023/04/21 09:44:24;;;;;;;29.93;14.23;;;15.50;99.90;;;;;;5066095;28;20041;-83
2023/04/21 09:46:57;;;;;;;33.63;15.55;;;15.60;99.90;;;;;;5066790;28;20049;-85
2023/04/21 09:49:26;;;;;;;33.42;15.10;;;15.70;99.90;;;;;;5066229;28;20102;-81
2023/04/21 09:51:52;;;;;;;31.25;15.95;;;15.70;99.90;;;;;;5059507;28;20037;-91
2023/04/21 09:54:19;;;;;;;28.33;14.38;;;15.60;99.90;;;;;;5058162;28;20037;-85
2023/04/21 09:56:50;;;;;;;25.52;14.30;;;15.70;99.90;;;;;;5059533;28;20041;-81
2023/04/21 09:59:26;;;;;;;28.35;14.15;;;15.90;99.90;;;;;;5059209;28;20041;-82
2023/04/21 10:01:54;;;;;;;32.40;15.27;;;16.10;99.90;;;;;;5042905;28;20487;-84
2023/04/21 10:04:22;;;;;;;35.80;16.30;;;16.50;99.90;;;;;;5057666;28;20033;-89
2023/04/21 10:06:48;;;;;;;32.95;15.25;;;16.60;99.90;;;;;;5059369;28;20052;-88
2023/04/21 10:09:19;;;;;;;30.23;14.27;;;16.60;99.90;;;;;;5056799;28;20041;-83
2023/04/21 10:11:45;;;;;;;33.45;15.18;;;16.40;99.90;;;;;;5055503;28;20045;-78
2023/04/21 10:14:11;;;;;;;31.35;15.35;;;16.40;99.90;;;;;;5054724;28;20048;-87
2023/04/21 10:16:37;;;;;;;34.38;15.38;;;16.40;99.90;;;;;;5057429;28;20048;-80
2023/04/21 10:19:25;;;;;;;28.60;12.98;;;16.40;99.90;;;;;;5057108;28;20047;-86
2023/04/21 10:21:54;;;;;;;33.80;15.55;;;16.50;99.90;;;;;;5057183;28;20071;-84
2023/04/21 10:24:20;;;;;;;23.05;12.15;;;16.60;99.90;;;;;;5055112;28;20037;-83
2023/04/21 10:26:48;;;;;;;29.60;14.48;;;16.70;99.90;;;;;;5054334;28;20416;-80
2023/04/21 10:29:28;;;;;;;30.45;15.63;;;16.90;99.90;;;;;;5056269;28;20045;-78
2023/04/21 10:31:54;;;;;;;32.75;15.18;;;17.00;99.90;;;;;;5056608;28;20063;-83
2023/04/21 10:34:24;;;;;;;32.42;15.07;;;17.10;99.90;;;;;;5055956;28;20161;-85
2023/04/21 10:36:56;;;;;;;32.05;15.75;;;17.20;99.90;;;;;;5057339;28;20504;-83
2023/04/21 10:39:35;;;;;;;28.73;14.40;;;17.30;99.90;;;;;;5058185;28;20373;-88
2023/04/21 10:42:23;;;;;;;31.35;15.43;;;17.30;99.90;;;;;;5058382;28;20426;-89
2023/04/21 10:44:58;;;;;;;30.50;16.10;;;17.30;99.90;;;;;;5060609;28;20029;-86
2023/04/21 10:47:30;;;;;;;29.77;15.32;;;17.40;99.90;;;;;;5038542;28;20507;-85
2023/04/21 10:50:09;;;;;;;29.23;15.88;;;17.40;99.90;;;;;;5056112;28;20044;-88
2023/04/21 10:52:35;;;;;;;30.38;15.38;;;17.40;99.90;;;;;;5055497;28;20083;-84
2023/04/21 10:55:00;;;;;;;37.15;15.85;;;17.50;99.90;;;;;;5056520;28;20056;-88
2023/04/21 10:57:32;;;;;;;31.83;15.98;;;17.60;99.90;;;;;;5057916;28;20412;-90
2023/04/21 10:59:58;;;;;;;29.67;14.95;;;17.60;99.90;;;;;;5057077;28;20049;-85
2023/04/21 11:02:24;;;;;;;26.85;14.45;;;17.70;99.90;;;;;;5056628;28;20044;-83
2023/04/21 11:04:51;;;;;;;32.88;14.85;;;17.70;99.90;;;;;;5057285;28;20124;-84
2023/04/21 11:07:22;;;;;;;28.33;14.70;;;17.80;99.90;;;;;;5059193;28;20049;-86
2023/04/21 11:09:59;;;;;;;25.40;10.60;;;18.00;99.90;;;;;;5055716;28;20477;-81
2023/04/21 11:12:30;;;;;;;30.35;14.75;;;18.20;99.30;;;;;;5054612;28;20041;-83
2023/04/21 11:14:56;;;;;;;36.58;15.80;;;18.30;99.70;;;;;;5056931;28;20481;-85
2023/04/21 11:17:23;;;;;;;35.92;13.80;;;18.40;99.90;;;;;;5056244;28;20419;-87
2023/04/21 11:19:51;;;;;;;;;;;18.40;99.70;;;;;;5056697;28;20051;-83
2023/04/21 11:22:18;;;;;;;23.42;11.20;;;18.50;99.10;;;;;;5054679;28;19916;-84
2023/04/21 11:24:49;;;;;;;27.65;14.63;;;18.40;98.20;;;;;;5055149;28;20380;-82
2023/04/21 11:27:16;;;;;;;31.05;14.82;;;18.40;98.80;;;;;;5055493;28;20040;-89
2023/04/21 11:29:45;;;;;;;30.58;14.98;;;18.40;98.80;;;;;;5054064;28;20110;-83
2023/04/21 11:32:11;;;;;;;27.90;15.63;;;18.30;98.70;;;;;;5055987;28;20045;-87
2023/04/21 11:34:37;;;;;;;30.10;14.73;;;18.30;98.80;;;;;;5058789;28;20055;-89
2023/04/21 11:37:03;;;;;;;31.58;15.18;;;18.30;99.10;;;;;;5056592;28;20067;-85
2023/04/21 11:39:29;;;;;;;26.53;13.80;;;18.30;98.90;;;;;;5054748;28;20041;-84
2023/04/21 11:41:55;;;;;;;27.70;14.95;;;18.40;98.30;;;;;;5061399;28;20075;-84
2023/04/21 11:44:31;;;;;;;28.63;14.30;;;18.30;98.20;;;;;;5060389;28;20087;-83
2023/04/21 11:46:57;;;;;;;24.42;12.95;;;18.30;98.30;;;;;;5057170;28;20040;-84
2023/04/21 11:49:28;;;;;;;31.52;14.95;;;18.20;98.30;;;;;;5058657;28;20499;-90
2023/04/21 11:51:55;;;;;;;29.50;13.15;;;18.20;98.60;;;;;;5059584;28;20045;-86
2023/04/21 11:54:23;;;;;;;25.77;13.35;;;18.20;98.30;;;;;;5061525;28;20048;-85
2023/04/21 11:56:49;;;;;;;27.70;15.02;;;18.20;98.40;;;;;;5060519;28;20538;-81
2023/04/21 11:59:21;;;;;;;31.73;15.88;;;18.40;98.40;;;;;;5065279;28;20045;-85
2023/04/21 12:01:48;;;;;;;29.08;16.52;;;18.50;99.00;;;;;;5058599;28;20048;-89
2023/04/21 12:04:15;;;;;;;33.13;16.50;;;18.70;99.20;;;;;;5054168;28;20116;-85
2023/04/21 12:06:41;;;;;;;30.42;15.80;;;18.80;99.30;;;;;;5057122;28;20045;-85
2023/04/21 12:09:07;;;;;;;27.45;15.35;;;18.70;98.90;;;;;;5059442;28;20128;-90
2023/04/21 12:11:33;;;;;;;29.92;14.85;;;18.70;98.70;;;;;;5059659;28;20087;-87
2023/04/21 12:14:00;;;;;;;32.85;14.38;;;18.80;98.40;;;;;;5055258;28;20426;-87
2023/04/21 12:16:29;;;;;;;33.28;15.35;;;18.90;97.90;;;;;;5057884;28;20492;-90
2023/04/21 12:18:56;;;;;;;32.53;14.45;;;18.90;97.90;;;;;;5057907;28;20052;-85
2023/04/21 12:21:26;;;;;;;29.42;13.70;;;19.00;98.20;;;;;;5056332;28;20060;-85
2023/04/21 12:23:52;;;;;;;30.08;14.15;;;18.90;97.40;;;;;;5057081;28;20044;-83
2023/04/21 12:26:17;;;;;;;27.80;13.87;;;19.00;97.40;;;;;;5061572;28;20037;-89
2023/04/21 12:28:43;;;;;;;28.50;13.27;;;19.10;97.20;;;;;;5062088;28;20112;-85
2023/04/21 12:31:09;;;;;;;32.37;14.20;;;19.20;97.30;;;;;;5062009;28;20438;-86